createdAt,value
2022-08-24T00:00:41.855Z,4.70
2022-08-24T00:03:12.043Z,4.90
2022-08-24T00:05:40.443Z,5.15
2022-08-24T00:08:08.929Z,6.07
2022-08-24T00:10:37.204Z,4.53
2022-08-24T00:13:07.190Z,5.70
2022-08-24T00:15:35.861Z,5.00
2022-08-24T00:18:04.774Z,5.00
2022-08-24T00:20:33.776Z,5.63
2022-08-24T00:23:02.236Z,4.85
2022-08-24T00:25:31.400Z,5.00
2022-08-24T00:28:00.070Z,5.03
2022-08-24T00:30:29.780Z,5.38
2022-08-24T00:32:57.970Z,4.57
2022-08-24T00:35:26.697Z,4.25
2022-08-24T00:37:55.919Z,5.10
2022-08-24T00:40:27.154Z,5.38
2022-08-24T00:42:56.642Z,4.85
2022-08-24T00:45:25.570Z,4.43
2022-08-24T00:47:59.221Z,4.47
2022-08-24T00:50:34.094Z,5.10
2022-08-24T00:53:07.567Z,4.93
2022-08-24T00:55:40.489Z,5.23
2022-08-24T00:58:17.126Z,4.78
2022-08-24T01:00:51.684Z,4.78
2022-08-24T01:03:22.209Z,5.70
2022-08-24T01:05:51.073Z,5.17
2022-08-24T01:08:23.197Z,4.90
2022-08-24T01:10:54.764Z,4.63
2022-08-24T01:13:25.332Z,4.67
2022-08-24T01:15:55.927Z,4.30
2022-08-24T01:18:45.481Z,5.07
2022-08-24T01:21:26.369Z,5.07
2022-08-24T01:23:57.411Z,4.35
2022-08-24T01:26:32.547Z,5.40
2022-08-24T01:29:04.863Z,5.23
2022-08-24T01:31:34.920Z,4.43
2022-08-24T01:34:04.218Z,3.83
2022-08-24T01:36:37.348Z,4.43
2022-08-24T01:39:16.479Z,4.87
2022-08-24T01:41:44.806Z,5.70
2022-08-24T01:44:14.616Z,4.57
2022-08-24T01:46:45.352Z,5.47
2022-08-24T01:49:13.698Z,3.80
2022-08-24T01:51:43.628Z,4.68
2022-08-24T01:54:14.717Z,4.60
2022-08-24T01:56:42.955Z,4.63
2022-08-24T01:59:12.783Z,4.70
2022-08-24T02:01:47.614Z,4.90
2022-08-24T02:04:17.848Z,4.10
2022-08-24T02:06:48.954Z,4.00
2022-08-24T02:09:19.698Z,4.23
2022-08-24T02:11:49.369Z,4.23
2022-08-24T02:14:19.474Z,5.10
2022-08-24T02:16:47.995Z,4.77
2022-08-24T02:19:23.753Z,4.90
2022-08-24T02:21:52.264Z,4.50
2022-08-24T02:24:22.021Z,4.80
2022-08-24T02:26:51.489Z,4.50
2022-08-24T02:29:19.714Z,4.40
2022-08-24T02:31:48.021Z,4.25
2022-08-24T02:34:16.605Z,4.60
2022-08-24T02:36:45.331Z,4.65
2022-08-24T02:39:14.109Z,5.18
2022-08-24T02:41:46.380Z,4.55
2022-08-24T02:44:14.555Z,5.30
2022-08-24T02:46:43.399Z,4.93
2022-08-24T02:49:13.701Z,4.13
2022-08-24T02:51:47.367Z,4.88
2022-08-24T02:54:21.665Z,4.85
2022-08-24T02:56:54.079Z,5.28
2022-08-24T02:59:23.204Z,5.10
2022-08-24T03:01:51.965Z,5.53
2022-08-24T03:04:21.987Z,4.63
2022-08-24T03:06:50.120Z,5.60
2022-08-24T03:09:18.810Z,5.30
2022-08-24T03:11:47.053Z,4.35
2022-08-24T03:14:19.188Z,5.50
2022-08-24T03:16:47.629Z,5.40
2022-08-24T03:19:16.419Z,5.88
2022-08-24T03:21:46.550Z,5.10
2022-08-24T03:24:15.226Z,5.43
2022-08-24T03:26:44.154Z,5.28
2022-08-24T03:29:14.219Z,5.18
2022-08-24T03:31:46.610Z,5.35
2022-08-24T03:34:15.137Z,5.53
2022-08-24T03:36:46.525Z,5.55
2022-08-24T03:39:17.425Z,5.70
2022-08-24T03:41:47.024Z,5.55
2022-08-24T03:44:15.495Z,4.72
2022-08-24T03:46:46.458Z,5.03
2022-08-24T03:49:14.975Z,5.43
2022-08-24T03:51:43.608Z,5.18
2022-08-24T03:54:13.904Z,5.43
2022-08-24T03:56:42.497Z,5.88
2022-08-24T03:59:11.626Z,5.65
2022-08-24T04:01:44.942Z,5.63
2022-08-24T04:04:13.204Z,4.72
2022-08-24T04:06:44.407Z,5.22
2022-08-24T04:09:13.701Z,5.45
2022-08-24T04:11:46.244Z,6.10
2022-08-24T04:14:26.838Z,5.97
2022-08-24T04:17:02.311Z,6.22
2022-08-24T04:19:35.503Z,5.18
2022-08-24T04:22:03.751Z,5.70
2022-08-24T04:24:32.009Z,5.55
2022-08-24T04:27:00.374Z,6.20
2022-08-24T04:29:28.761Z,5.75
2022-08-24T04:31:58.411Z,6.38
2022-08-24T04:34:29.165Z,5.80
2022-08-24T04:36:58.962Z,6.18
2022-08-24T04:39:28.344Z,5.65
2022-08-24T04:42:06.417Z,5.45
2022-08-24T04:44:39.022Z,6.00
2022-08-24T04:47:08.547Z,5.90
2022-08-24T04:49:40.128Z,6.30
2022-08-24T04:52:09.934Z,5.75
2022-08-24T04:54:38.740Z,5.65
2022-08-24T04:57:13.566Z,5.38
2022-08-24T04:59:45.560Z,5.82
2022-08-24T05:02:13.955Z,5.93
2022-08-24T05:04:43.741Z,7.30
2022-08-24T05:07:13.002Z,5.93
2022-08-24T05:09:42.977Z,5.78
2022-08-24T05:12:11.789Z,5.60
2022-08-24T05:14:44.053Z,5.88
2022-08-24T05:17:12.286Z,5.85
2022-08-24T05:19:43.679Z,5.47
2022-08-24T05:22:12.533Z,6.75
2022-08-24T05:24:46.715Z,6.70
2022-08-24T05:27:14.963Z,5.57
2022-08-24T05:29:45.089Z,6.72
2022-08-24T05:32:14.445Z,6.15
2022-08-24T05:34:44.598Z,6.30
2022-08-24T05:37:12.978Z,5.55
2022-08-24T05:40:15.971Z,5.30
2022-08-24T05:42:48.485Z,6.20
2022-08-24T05:45:17.837Z,5.97
2022-08-24T05:47:45.993Z,6.15
2022-08-24T05:50:38.274Z,5.35
2022-08-24T05:53:07.514Z,6.13
2022-08-24T05:55:38.673Z,5.80
2022-08-24T05:58:07.234Z,7.53
2022-08-24T06:00:39.447Z,5.65
2022-08-24T06:03:08.830Z,6.13
2022-08-24T06:05:48.994Z,6.25
2022-08-24T06:08:17.271Z,5.75
2022-08-24T06:10:48.885Z,5.80
2022-08-24T06:13:17.785Z,6.72
2022-08-24T06:16:04.746Z,5.22
2022-08-24T06:18:34.971Z,5.32
2022-08-24T06:21:10.544Z,5.53
2022-08-24T06:23:41.774Z,5.25
2022-08-24T06:26:27.415Z,5.88
2022-08-24T06:28:57.693Z,5.03
2022-08-24T06:31:26.483Z,5.60
2022-08-24T06:33:56.463Z,5.30
2022-08-24T06:36:26.051Z,5.13
2022-08-24T06:38:54.833Z,6.17
2022-08-24T06:41:23.857Z,5.03
2022-08-24T06:43:52.515Z,5.97
2022-08-24T06:46:32.010Z,5.70
2022-08-24T06:49:01.267Z,4.47
2022-08-24T06:51:31.925Z,4.30
2022-08-24T06:54:01.554Z,5.30
2022-08-24T06:56:31.667Z,4.33
2022-08-24T06:59:03.352Z,4.47
2022-08-24T07:01:33.124Z,4.60
2022-08-24T07:04:02.164Z,5.50
2022-08-24T07:07:07.044Z,4.80
2022-08-24T07:09:35.481Z,5.50
2022-08-24T07:12:04.656Z,4.20
2022-08-24T07:14:33.189Z,5.37
2022-08-24T07:17:03.002Z,4.90
2022-08-24T07:19:32.773Z,4.40
2022-08-24T07:22:01.586Z,4.57
2022-08-24T07:24:31.118Z,4.57
2022-08-24T07:26:59.147Z,4.13
2022-08-24T07:29:48.481Z,4.03
2022-08-24T07:32:17.524Z,4.10
2022-08-24T07:34:46.925Z,3.90
2022-08-24T07:37:15.148Z,5.00
2022-08-24T07:39:48.844Z,3.93
2022-08-24T07:42:26.972Z,4.17
2022-08-24T07:45:00.598Z,3.83
2022-08-24T07:47:53.644Z,4.60
2022-08-24T07:50:38.361Z,4.00
2022-08-24T07:53:09.820Z,4.77
2022-08-24T07:55:46.172Z,4.90
2022-08-24T07:58:15.263Z,4.07
2022-08-24T08:00:47.787Z,3.77
2022-08-24T08:03:16.220Z,4.33
2022-08-24T08:05:45.819Z,4.57
2022-08-24T08:08:14.090Z,4.50
2022-08-24T08:10:43.929Z,4.37
2022-08-24T08:13:11.988Z,4.40
2022-08-24T08:15:40.267Z,4.17
2022-08-24T08:18:11.490Z,4.40
2022-08-24T08:20:43.471Z,4.20
2022-08-24T08:23:30.764Z,4.33
2022-08-24T08:26:20.237Z,4.83
2022-08-24T08:28:59.856Z,3.60
2022-08-24T08:31:28.761Z,3.63
2022-08-24T08:33:57.113Z,3.53
2022-08-24T08:36:25.447Z,3.23
2022-08-24T08:38:55.459Z,3.97
2022-08-24T08:41:59.200Z,3.20
2022-08-24T08:44:45.996Z,4.27
2022-08-24T08:47:30.883Z,3.70
2022-08-24T08:50:14.709Z,4.00
2022-08-24T08:53:09.585Z,4.07
2022-08-24T08:55:43.497Z,3.67
2022-08-24T08:58:26.458Z,4.33
2022-08-24T09:01:05.142Z,4.13
2022-08-24T09:03:56.557Z,3.77
2022-08-24T09:07:24.223Z,3.50
2022-08-24T09:10:21.670Z,3.93
2022-08-24T09:13:09.123Z,3.23
2022-08-24T09:16:10.702Z,3.37
2022-08-24T09:18:55.649Z,3.23
2022-08-24T09:21:42.994Z,2.80
2022-08-24T09:24:34.770Z,3.10
2022-08-24T09:27:24.513Z,2.97
2022-08-24T09:30:07.148Z,2.73
2022-08-24T09:32:46.473Z,2.67
2022-08-24T09:35:27.221Z,3.03
2022-08-24T09:38:02.400Z,3.27
2022-08-24T09:41:01.214Z,2.87
2022-08-24T09:44:04.253Z,2.60
2022-08-24T09:47:08.631Z,2.30
2022-08-24T09:50:03.535Z,2.50
2022-08-24T09:53:02.723Z,2.30
2022-08-24T09:56:01.752Z,2.53
2022-08-24T09:58:59.027Z,2.60
2022-08-24T10:01:37.564Z,2.40
2022-08-24T10:04:15.950Z,2.30
2022-08-24T10:06:55.490Z,2.70
2022-08-24T10:09:50.232Z,2.53
2022-08-24T10:12:34.943Z,2.10
2022-08-24T10:15:07.403Z,2.80
2022-08-24T10:18:04.694Z,2.63
2022-08-24T10:20:51.122Z,2.40
2022-08-24T10:23:46.488Z,2.80
2022-08-24T10:26:23.001Z,2.67
2022-08-24T10:29:08.360Z,2.90
2022-08-24T10:31:48.728Z,2.83
2022-08-24T10:34:43.547Z,2.43
2022-08-24T10:37:35.404Z,2.33
2022-08-24T10:40:36.670Z,2.90
2022-08-24T10:43:36.563Z,2.63
2022-08-24T10:46:33.260Z,2.87
2022-08-24T10:49:33.406Z,2.70
2022-08-24T10:52:49.098Z,2.90
2022-08-24T10:55:21.588Z,3.00
2022-08-24T10:58:11.455Z,2.40
2022-08-24T11:00:40.673Z,3.20
2022-08-24T11:03:12.703Z,3.20
2022-08-24T11:05:46.636Z,3.10
2022-08-24T11:08:22.546Z,2.80
2022-08-24T11:11:07.165Z,3.10
2022-08-24T11:13:38.411Z,2.90
2022-08-24T11:16:08.077Z,3.17
2022-08-24T11:18:49.447Z,3.13
2022-08-24T11:21:34.751Z,2.90
2022-08-24T11:24:04.482Z,3.37
2022-08-24T11:26:46.568Z,3.30
2022-08-24T11:29:27.545Z,2.60
2022-08-24T11:31:55.639Z,2.80
2022-08-24T11:34:33.774Z,2.93
2022-08-24T11:37:02.646Z,3.30
2022-08-24T11:39:35.402Z,2.90
2022-08-24T11:42:13.277Z,2.80
2022-08-24T11:44:49.827Z,3.40
2022-08-24T11:47:37.806Z,2.93
2022-08-24T11:50:18.816Z,2.87
2022-08-24T11:53:04.291Z,3.00
2022-08-24T11:55:51.661Z,2.87
2022-08-24T11:58:37.903Z,2.80
2022-08-24T12:01:14.461Z,2.73
2022-08-24T12:03:54.533Z,3.33
2022-08-24T12:06:32.251Z,2.80
2022-08-24T12:09:07.192Z,2.63
2022-08-24T12:11:44.582Z,2.53
2022-08-24T12:14:22.181Z,2.30
2022-08-24T12:16:59.006Z,2.67
2022-08-24T12:19:30.888Z,2.47
2022-08-24T12:22:03.357Z,2.40
2022-08-24T12:24:37.677Z,2.63
2022-08-24T12:27:11.423Z,2.30
2022-08-24T12:29:44.656Z,2.23
2022-08-24T12:32:19.373Z,2.43
2022-08-24T12:34:55.874Z,2.27
2022-08-24T12:37:31.696Z,2.27
2022-08-24T12:40:08.760Z,2.90
2022-08-24T12:42:47.550Z,3.00
2022-08-24T12:45:20.662Z,3.00
2022-08-24T12:47:55.806Z,2.83
2022-08-24T12:50:29.549Z,2.40
2022-08-24T12:53:32.257Z,2.90
2022-08-24T12:56:32.717Z,2.67
2022-08-24T12:59:22.086Z,2.33
2022-08-24T13:02:01.644Z,2.60
2022-08-24T13:04:40.751Z,2.30
2022-08-24T13:07:14.962Z,2.43
2022-08-24T13:09:45.968Z,2.00
2022-08-24T13:12:54.878Z,2.47
2022-08-24T13:15:53.473Z,2.43
2022-08-24T13:18:44.246Z,2.93
2022-08-24T13:21:35.232Z,2.00
2022-08-24T13:24:50.254Z,2.37
2022-08-24T13:28:12.603Z,2.20
2022-08-24T13:31:11.220Z,2.27
2022-08-24T13:33:43.178Z,1.90
2022-08-24T13:36:47.949Z,1.57
2022-08-24T13:39:46.099Z,2.00
2022-08-24T13:42:39.386Z,2.10
2022-08-24T13:45:23.226Z,2.60
2022-08-24T13:48:03.027Z,2.47
2022-08-24T13:50:39.668Z,2.40
2022-08-24T13:53:41.373Z,2.10
2022-08-24T13:56:32.557Z,2.50
2022-08-24T13:59:10.383Z,1.73
2022-08-24T14:01:52.341Z,2.23
2022-08-24T14:04:47.251Z,2.27
2022-08-24T14:07:21.907Z,2.20
2022-08-24T14:10:08.742Z,2.03
2022-08-24T14:12:56.441Z,2.47
2022-08-24T14:15:33.255Z,2.07
2022-08-24T14:18:12.903Z,2.10
2022-08-24T14:21:02.192Z,2.23
2022-08-24T14:23:40.063Z,2.50
2022-08-24T14:26:44.603Z,2.07
2022-08-24T14:29:36.881Z,2.40
2022-08-24T14:32:40.266Z,2.40
2022-08-24T14:35:23.271Z,2.23
2022-08-24T14:38:03.741Z,2.63
2022-08-24T14:40:37.328Z,2.37
2022-08-24T14:43:28.679Z,2.47
2022-08-24T14:46:10.302Z,2.00
2022-08-24T14:48:48.974Z,2.57
2022-08-24T14:51:45.676Z,2.63
2022-08-24T14:54:25.832Z,2.17
2022-08-24T14:57:07.336Z,2.30
2022-08-24T14:59:46.843Z,2.07
2022-08-24T15:02:41.322Z,2.30
2022-08-24T15:05:21.826Z,2.40
2022-08-24T15:07:56.986Z,2.60
2022-08-24T15:10:28.953Z,2.23
2022-08-24T15:13:03.573Z,2.23
2022-08-24T15:15:35.222Z,2.50
2022-08-24T15:18:14.453Z,2.23
2022-08-24T15:20:58.065Z,2.73
2022-08-24T15:23:40.970Z,2.40
2022-08-24T15:26:15.258Z,2.07
2022-08-24T15:28:56.285Z,2.30
2022-08-24T15:31:28.878Z,2.37
2022-08-24T15:34:00.992Z,2.23
2022-08-24T15:36:32.979Z,2.27
2022-08-24T15:39:01.748Z,2.63
2022-08-24T15:41:32.654Z,2.13
2022-08-24T15:44:06.038Z,2.70
2022-08-24T15:46:38.165Z,2.30
2022-08-24T15:49:20.112Z,2.23
2022-08-24T15:51:53.471Z,3.17
2022-08-24T15:54:32.948Z,1.97
2022-08-24T15:57:04.369Z,2.40
2022-08-24T15:59:45.538Z,2.47
2022-08-24T16:02:26.819Z,2.40
2022-08-24T16:05:13.060Z,2.87
2022-08-24T16:08:13.429Z,2.77
2022-08-24T16:10:43.902Z,2.50
2022-08-24T16:13:28.246Z,3.30
2022-08-24T16:16:03.938Z,2.63
2022-08-24T16:18:48.534Z,2.40
2022-08-24T16:21:24.944Z,2.47
2022-08-24T16:24:01.342Z,2.60
2022-08-24T16:26:32.894Z,2.90
2022-08-24T16:29:01.726Z,2.70
2022-08-24T16:31:51.928Z,2.40
2022-08-24T16:34:24.238Z,2.80
2022-08-24T16:36:53.948Z,2.93
2022-08-24T16:39:22.214Z,2.73
2022-08-24T16:41:52.274Z,2.73
2022-08-24T16:44:20.452Z,2.47
2022-08-24T16:46:54.255Z,3.10
2022-08-24T16:49:22.496Z,3.20
2022-08-24T16:51:50.901Z,2.60
2022-08-24T16:54:20.881Z,2.77
2022-08-24T16:56:49.125Z,2.50
2022-08-24T16:59:23.316Z,2.63
2022-08-24T17:01:51.339Z,2.23
2022-08-24T17:04:19.737Z,2.40
2022-08-24T17:06:49.849Z,2.50
2022-08-24T17:09:20.708Z,2.77
2022-08-24T17:11:49.601Z,2.47
2022-08-24T17:14:19.681Z,2.53
2022-08-24T17:16:48.338Z,2.43
2022-08-24T17:19:20.592Z,2.80
2022-08-24T17:21:49.107Z,2.73
2022-08-24T17:24:21.203Z,2.70
2022-08-24T17:26:50.853Z,1.97
2022-08-24T17:29:20.775Z,2.83
2022-08-24T17:31:50.806Z,2.33
2022-08-24T17:34:21.585Z,2.47
2022-08-24T17:36:56.911Z,2.23
2022-08-24T17:39:33.345Z,3.33
2022-08-24T17:42:20.946Z,2.40
2022-08-24T17:44:58.590Z,2.60
2022-08-24T17:47:32.403Z,2.70
2022-08-24T17:50:06.441Z,3.20
2022-08-24T17:52:38.712Z,2.77
2022-08-24T17:55:14.306Z,2.50
2022-08-24T17:57:49.100Z,3.07
2022-08-24T18:00:21.974Z,2.67
2022-08-24T18:02:54.933Z,2.33
2022-08-24T18:05:27.123Z,2.20
2022-08-24T18:07:57.820Z,2.40
2022-08-24T18:10:35.676Z,2.90
2022-08-24T18:13:06.463Z,1.90
2022-08-24T18:15:40.635Z,2.00
2022-08-24T18:18:14.002Z,2.33
2022-08-24T18:20:47.926Z,2.10
2022-08-24T18:23:24.565Z,2.10
2022-08-24T18:25:58.138Z,2.50
2022-08-24T18:28:28.643Z,2.40
2022-08-24T18:31:01.485Z,1.90
2022-08-24T18:33:34.052Z,2.40
2022-08-24T18:36:08.796Z,1.90
2022-08-24T18:38:41.505Z,2.10
2022-08-24T18:41:13.937Z,2.60
2022-08-24T18:43:48.230Z,2.30
2022-08-24T18:46:20.595Z,2.30
2022-08-24T18:48:53.239Z,2.63
2022-08-24T18:51:34.328Z,2.07
2022-08-24T18:54:13.361Z,2.10
2022-08-24T18:56:49.814Z,2.50
2022-08-24T18:59:25.430Z,2.20
2022-08-24T19:02:16.830Z,2.40
2022-08-24T19:04:53.344Z,2.17
2022-08-24T19:07:22.355Z,2.10
2022-08-24T19:09:51.333Z,2.67
2022-08-24T19:12:22.093Z,2.10
2022-08-24T19:14:54.462Z,2.17
2022-08-24T19:17:22.977Z,2.77
2022-08-24T19:19:51.422Z,3.10
2022-08-24T19:22:19.717Z,2.00
2022-08-24T19:24:48.664Z,1.73
2022-08-24T19:27:17.311Z,2.70
2022-08-24T19:29:57.484Z,2.67
2022-08-24T19:32:32.089Z,2.50
2022-08-24T19:35:00.602Z,2.33
2022-08-24T19:37:31.408Z,2.10
2022-08-24T19:40:00.368Z,2.40
2022-08-24T19:42:29.344Z,2.50
2022-08-24T19:45:18.772Z,2.60
2022-08-24T19:47:47.319Z,2.67
2022-08-24T19:50:21.298Z,2.77
2022-08-24T19:52:49.688Z,2.53
2022-08-24T19:55:17.789Z,2.43
2022-08-24T19:57:50.833Z,2.50
2022-08-24T20:00:36.423Z,1.93
2022-08-24T20:03:06.292Z,2.80
2022-08-24T20:05:37.623Z,2.60
2022-08-24T20:08:05.796Z,3.13
2022-08-24T20:10:34.503Z,1.97
2022-08-24T20:13:02.957Z,2.60
2022-08-24T20:15:33.439Z,3.20
2022-08-24T20:18:01.663Z,2.57
2022-08-24T20:20:32.151Z,2.53
2022-08-24T20:23:03.299Z,2.77
2022-08-24T20:25:31.877Z,2.80
2022-08-24T20:28:27.837Z,2.90
2022-08-24T20:30:51.564Z,2.00
2022-08-24T20:33:21.747Z,2.50
2022-08-24T20:35:50.762Z,2.50
2022-08-24T20:38:21.302Z,2.87
2022-08-24T20:40:50.654Z,2.27
2022-08-24T20:43:19.711Z,2.43
2022-08-24T20:45:50.469Z,2.57
2022-08-24T20:48:24.715Z,2.67
2022-08-24T20:50:52.939Z,2.77
2022-08-24T20:53:21.297Z,2.90
2022-08-24T20:55:49.522Z,2.70
2022-08-24T20:58:21.509Z,2.53
2022-08-24T21:00:50.062Z,2.80
2022-08-24T21:03:20.025Z,2.60
2022-08-24T21:05:52.282Z,2.90
2022-08-24T21:08:20.427Z,2.70
2022-08-24T21:10:48.636Z,2.33
2022-08-24T21:13:16.844Z,3.27
2022-08-24T21:15:45.397Z,3.00
2022-08-24T21:18:13.788Z,2.90
2022-08-24T21:21:00.750Z,3.00
2022-08-24T21:23:32.696Z,3.20
2022-08-24T21:26:00.920Z,2.43
2022-08-24T21:28:29.469Z,2.50
2022-08-24T21:30:59.002Z,2.80
2022-08-24T21:33:46.677Z,3.30
2022-08-24T21:36:16.625Z,2.60
2022-08-24T21:38:44.828Z,3.03
2022-08-24T21:41:13.745Z,2.70
2022-08-24T21:43:41.859Z,3.33
2022-08-24T21:46:10.046Z,2.50
2022-08-24T21:48:39.974Z,2.97
2022-08-24T21:51:08.383Z,2.83
2022-08-24T21:53:38.199Z,2.50
2022-08-24T21:56:06.796Z,3.20
2022-08-24T21:58:34.932Z,2.53
2022-08-24T22:01:04.167Z,3.00
2022-08-24T22:03:40.279Z,2.90
2022-08-24T22:06:09.746Z,2.90
2022-08-24T22:08:41.744Z,2.43
2022-08-24T22:11:11.729Z,3.03
2022-08-24T22:13:40.493Z,2.97
2022-08-24T22:16:08.871Z,2.90
2022-08-24T22:18:37.200Z,2.80
2022-08-24T22:21:08.972Z,3.00
2022-08-24T22:23:37.499Z,2.90
2022-08-24T22:26:07.561Z,2.73
2022-08-24T22:28:37.312Z,2.90
2022-08-24T22:31:16.306Z,2.83
2022-08-24T22:33:44.616Z,2.63
2022-08-24T22:36:14.272Z,2.80
2022-08-24T22:38:42.612Z,3.20
2022-08-24T22:41:12.683Z,2.47
2022-08-24T22:43:58.989Z,3.30
2022-08-24T22:46:27.718Z,2.40
2022-08-24T22:48:56.016Z,3.47
2022-08-24T22:51:24.229Z,3.03
2022-08-24T22:53:53.463Z,3.50
2022-08-24T22:56:25.210Z,3.17
2022-08-24T22:58:54.820Z,3.17
2022-08-24T23:01:25.118Z,2.90
2022-08-24T23:03:54.835Z,3.30
2022-08-24T23:06:24.087Z,2.80
2022-08-24T23:08:52.567Z,3.03
2022-08-24T23:11:24.724Z,3.37
2022-08-24T23:13:52.891Z,3.50
2022-08-24T23:16:21.314Z,2.93
2022-08-24T23:19:06.937Z,2.97
2022-08-24T23:21:35.161Z,3.10
2022-08-24T23:24:03.491Z,3.00
2022-08-24T23:26:33.453Z,2.90
2022-08-24T23:29:03.620Z,3.23
2022-08-24T23:31:32.804Z,3.03
2022-08-24T23:34:01.163Z,3.57
2022-08-24T23:36:29.297Z,3.23
2022-08-24T23:39:00.260Z,3.20
2022-08-24T23:41:31.140Z,2.70
2022-08-24T23:44:03.489Z,2.90
2022-08-24T23:46:32.198Z,3.20
2022-08-24T23:49:03.420Z,3.17
2022-08-24T23:51:32.439Z,3.37
2022-08-24T23:54:01.055Z,3.13
2022-08-24T23:56:33.475Z,3.90
2022-08-24T23:59:06.527Z,3.50
